createdAt,value
2019-03-16T00:00:06.735Z,0.61
2019-03-16T00:15:08.021Z,0.66
2019-03-16T00:30:12.271Z,0.76
2019-03-16T01:00:03.536Z,0.72
2019-03-16T01:15:08.047Z,0.72
2019-03-16T01:45:08.347Z,0.7
2019-03-16T02:00:03.319Z,0.65
2019-03-16T02:45:05.547Z,0.73
2019-03-16T03:00:12.677Z,0.79
2019-03-16T03:45:11.534Z,0.63
2019-03-16T04:15:11.608Z,0.81
2019-03-16T04:30:06.778Z,0.72
2019-03-16T04:45:05.252Z,0.76
2019-03-16T05:00:09.975Z,0.68
2019-03-16T05:30:07.419Z,0.65
2019-03-16T05:45:12.330Z,0.81
2019-03-16T06:00:12.132Z,0.64
2019-03-16T06:15:09.762Z,0.72
2019-03-16T06:30:07.931Z,0.69
2019-03-16T06:45:10.362Z,0.68
2019-03-16T07:00:06.166Z,0.63
2019-03-16T07:15:12.561Z,0.59
2019-03-16T07:30:07.647Z,0.63
2019-03-16T07:45:13.043Z,0.77
2019-03-16T08:00:06.566Z,0.82
2019-03-16T08:15:11.132Z,0.73
2019-03-16T09:15:05.520Z,0.63
2019-03-16T09:30:05.548Z,0.53
2019-03-16T09:45:05.614Z,0.41
2019-03-16T10:00:05.642Z,0.42
2019-03-16T10:15:05.685Z,0.37
2019-03-16T10:30:05.708Z,0.44
2019-03-16T10:45:05.774Z,0.41
2019-03-16T11:15:05.339Z,0.63
2019-03-16T11:30:09.957Z,0.54
2019-03-16T12:00:06.658Z,0.68
2019-03-16T12:15:09.608Z,1
2019-03-16T12:30:09.155Z,0.97
2019-03-16T12:45:05.087Z,0.95
2019-03-16T13:00:03.701Z,0.86
2019-03-16T13:15:09.502Z,0.77
2019-03-16T13:30:09.399Z,0.73
2019-03-16T13:45:10.884Z,0.68
2019-03-16T14:00:12.032Z,0.76
2019-03-16T14:15:03.811Z,0.66
2019-03-16T14:30:07.501Z,0.7
2019-03-16T14:45:12.707Z,0.73
2019-03-16T15:00:05.776Z,0.84
2019-03-16T15:15:07.677Z,0.77
2019-03-16T15:30:11.637Z,0.63
2019-03-16T15:45:12.374Z,0.79
2019-03-16T16:00:04.528Z,0.74
2019-03-16T16:15:04.586Z,0.78
2019-03-16T16:30:07.336Z,0.83
2019-03-16T16:45:12.284Z,0.75
2019-03-16T17:00:04.095Z,0.72
2019-03-16T17:15:06.862Z,0.75
2019-03-16T17:30:06.204Z,0.75
2019-03-16T17:45:11.546Z,0.83
2019-03-16T18:00:12.476Z,0.71
2019-03-16T18:15:04.395Z,0.74
2019-03-16T18:30:09.093Z,0.7
2019-03-16T18:45:05.351Z,0.78
2019-03-16T19:00:07.970Z,0.76
2019-03-16T19:15:10.666Z,0.81
2019-03-16T19:30:03.855Z,0.79
2019-03-16T19:45:07.556Z,0.78
2019-03-16T20:00:06.735Z,0.71
2019-03-16T20:15:07.358Z,0.73
2019-03-16T20:30:12.893Z,0.67
2019-03-16T20:45:08.947Z,0.65
2019-03-16T21:00:04.885Z,0.62
2019-03-16T21:15:07.121Z,0.78
2019-03-16T21:30:08.308Z,0.77
2019-03-16T21:45:08.872Z,0.72
2019-03-16T22:00:11.638Z,0.64
2019-03-16T22:15:06.096Z,0.72
2019-03-16T22:30:12.025Z,0.75
2019-03-16T22:45:05.658Z,0.71
2019-03-16T23:00:12.278Z,0.7
2019-03-16T23:15:02.937Z,0.73
2019-03-16T23:30:11.566Z,0.76
2019-03-16T23:45:08.897Z,0.89
